sensor_id;sensor_type;location;lat;lon;timestamp;pressure;altitude;pressure_sealevel;temperature
80581;BMP180;1474;51.460;7.150;2024-03-23T00:53:45;99904.00;;;5.70
80581;BMP180;1474;51.460;7.150;2024-03-23T00:56:30;99900.00;;;5.80
80581;BMP180;1474;51.460;7.150;2024-03-23T00:59:14;99894.00;;;5.50
80581;BMP180;1474;51.460;7.150;2024-03-23T01:01:59;99891.00;;;5.70
80581;BMP180;1474;51.460;7.150;2024-03-23T01:04:43;99882.00;;;5.70
80581;BMP180;1474;51.460;7.150;2024-03-23T01:07:28;99888.00;;;5.70
80581;BMP180;1474;51.460;7.150;2024-03-23T01:10:12;99883.00;;;5.70
80581;BMP180;1474;51.460;7.150;2024-03-23T01:12:57;99883.00;;;5.70
80581;BMP180;1474;51.460;7.150;2024-03-23T01:15:51;99876.00;;;5.60
80581;BMP180;1474;51.460;7.150;2024-03-23T01:18:36;99880.00;;;5.70
80581;BMP180;1474;51.460;7.150;2024-03-23T01:21:21;99870.00;;;5.70
80581;BMP180;1474;51.460;7.150;2024-03-23T01:24:05;99871.00;;;5.50
80581;BMP180;1474;51.460;7.150;2024-03-23T01:26:51;99883.00;;;5.70
80581;BMP180;1474;51.460;7.150;2024-03-23T01:29:35;99858.00;;;5.60
80581;BMP180;1474;51.460;7.150;2024-03-23T01:32:20;99853.00;;;5.50
80581;BMP180;1474;51.460;7.150;2024-03-23T01:35:05;99840.00;;;5.50
80581;BMP180;1474;51.460;7.150;2024-03-23T01:37:50;99851.00;;;5.50
80581;BMP180;1474;51.460;7.150;2024-03-23T01:40:34;99851.00;;;5.40
80581;BMP180;1474;51.460;7.150;2024-03-23T01:43:19;99849.00;;;5.40
80581;BMP180;1474;51.460;7.150;2024-03-23T01:46:04;99859.00;;;5.40
80581;BMP180;1474;51.460;7.150;2024-03-23T01:48:49;99852.00;;;5.40
80581;BMP180;1474;51.460;7.150;2024-03-23T01:51:36;99867.00;;;5.30
80581;BMP180;1474;51.460;7.150;2024-03-23T01:54:21;99854.00;;;5.20
80581;BMP180;1474;51.460;7.150;2024-03-23T01:57:07;99848.00;;;5.10
80581;BMP180;1474;51.460;7.150;2024-03-23T01:59:51;99835.00;;;5.10
80581;BMP180;1474;51.460;7.150;2024-03-23T02:02:45;99829.00;;;5.10
80581;BMP180;1474;51.460;7.150;2024-03-23T02:05:29;99838.00;;;5.00
80581;BMP180;1474;51.460;7.150;2024-03-23T02:08:14;99825.00;;;5.00
80581;BMP180;1474;51.460;7.150;2024-03-23T02:10:58;99820.00;;;5.00
80581;BMP180;1474;51.460;7.150;2024-03-23T02:13:43;99828.00;;;4.90
80581;BMP180;1474;51.460;7.150;2024-03-23T02:16:28;99813.00;;;4.80
80581;BMP180;1474;51.460;7.150;2024-03-23T02:19:12;99797.00;;;4.90
80581;BMP180;1474;51.460;7.150;2024-03-23T02:21:57;99788.00;;;4.90
80581;BMP180;1474;51.460;7.150;2024-03-23T02:24:42;99791.00;;;4.90
80581;BMP180;1474;51.460;7.150;2024-03-23T02:27:26;99804.00;;;4.90
80581;BMP180;1474;51.460;7.150;2024-03-23T02:30:11;99807.00;;;5.00
80581;BMP180;1474;51.460;7.150;2024-03-23T02:32:56;99801.00;;;4.90
80581;BMP180;1474;51.460;7.150;2024-03-23T02:35:40;99804.00;;;4.90
80581;BMP180;1474;51.460;7.150;2024-03-23T02:38:25;99811.00;;;5.10
80581;BMP180;1474;51.460;7.150;2024-03-23T02:41:10;99808.00;;;5.00
80581;BMP180;1474;51.460;7.150;2024-03-23T02:43:54;99799.00;;;4.90
80581;BMP180;1474;51.460;7.150;2024-03-23T02:46:39;99792.00;;;5.00
80581;BMP180;1474;51.460;7.150;2024-03-23T02:49:23;99799.00;;;4.90
80581;BMP180;1474;51.460;7.150;2024-03-23T02:52:08;99788.00;;;4.90
80581;BMP180;1474;51.460;7.150;2024-03-23T02:54:52;99798.00;;;4.80
80581;BMP180;1474;51.460;7.150;2024-03-23T02:57:37;99796.00;;;4.90
80581;BMP180;1474;51.460;7.150;2024-03-23T03:00:21;99799.00;;;4.80
80581;BMP180;1474;51.460;7.150;2024-03-23T03:03:06;99808.00;;;4.90
80581;BMP180;1474;51.460;7.150;2024-03-23T03:05:57;99808.00;;;4.80
80581;BMP180;1474;51.460;7.150;2024-03-23T03:08:42;99808.00;;;4.90
80581;BMP180;1474;51.460;7.150;2024-03-23T03:11:26;99811.00;;;4.90
80581;BMP180;1474;51.460;7.150;2024-03-23T03:14:11;99807.00;;;4.90
80581;BMP180;1474;51.460;7.150;2024-03-23T03:16:56;99801.00;;;4.80
80581;BMP180;1474;51.460;7.150;2024-03-23T03:19:40;99800.00;;;4.80
80581;BMP180;1474;51.460;7.150;2024-03-23T03:22:25;99796.00;;;4.70
80581;BMP180;1474;51.460;7.150;2024-03-23T03:25:09;99802.00;;;4.80
80581;BMP180;1474;51.460;7.150;2024-03-23T03:27:54;99804.00;;;4.90
80581;BMP180;1474;51.460;7.150;2024-03-23T03:30:39;99797.00;;;4.80
80581;BMP180;1474;51.460;7.150;2024-03-23T03:33:23;99787.00;;;4.80
80581;BMP180;1474;51.460;7.150;2024-03-23T03:36:08;99769.00;;;4.80
80581;BMP180;1474;51.460;7.150;2024-03-23T03:38:52;99778.00;;;4.80
80581;BMP180;1474;51.460;7.150;2024-03-23T03:41:37;99781.00;;;4.80
80581;BMP180;1474;51.460;7.150;2024-03-23T03:44:21;99786.00;;;4.70
80581;BMP180;1474;51.460;7.150;2024-03-23T03:47:06;99793.00;;;4.70
80581;BMP180;1474;51.460;7.150;2024-03-23T03:49:51;99791.00;;;4.70
80581;BMP180;1474;51.460;7.150;2024-03-23T03:52:36;99794.00;;;4.70
80581;BMP180;1474;51.460;7.150;2024-03-23T03:55:20;99788.00;;;4.70
80581;BMP180;1474;51.460;7.150;2024-03-23T03:58:05;99780.00;;;4.70
80581;BMP180;1474;51.460;7.150;2024-03-23T04:00:50;99781.00;;;4.70
80581;BMP180;1474;51.460;7.150;2024-03-23T04:03:34;99773.00;;;4.70
80581;BMP180;1474;51.460;7.150;2024-03-23T04:06:19;99774.00;;;4.70
80581;BMP180;1474;51.460;7.150;2024-03-23T04:09:04;99776.00;;;4.70
80581;BMP180;1474;51.460;7.150;2024-03-23T04:11:48;99778.00;;;4.60
80581;BMP180;1474;51.460;7.150;2024-03-23T04:14:33;99786.00;;;4.70
80581;BMP180;1474;51.460;7.150;2024-03-23T04:17:18;99783.00;;;4.70
80581;BMP180;1474;51.460;7.150;2024-03-23T04:20:03;99790.00;;;4.70
80581;BMP180;1474;51.460;7.150;2024-03-23T04:22:52;99785.00;;;4.70
80581;BMP180;1474;51.460;7.150;2024-03-23T04:25:37;99783.00;;;4.60
80581;BMP180;1474;51.460;7.150;2024-03-23T04:28:22;99782.00;;;4.60
80581;BMP180;1474;51.460;7.150;2024-03-23T04:31:07;99780.00;;;4.50
80581;BMP180;1474;51.460;7.150;2024-03-23T04:33:51;99774.00;;;4.50
80581;BMP180;1474;51.460;7.150;2024-03-23T04:36:36;99769.00;;;4.60
80581;BMP180;1474;51.460;7.150;2024-03-23T04:39:20;99766.00;;;4.60
80581;BMP180;1474;51.460;7.150;2024-03-23T04:42:05;99759.00;;;4.60
80581;BMP180;1474;51.460;7.150;2024-03-23T04:44:50;99759.00;;;4.60
80581;BMP180;1474;51.460;7.150;2024-03-23T04:47:34;99766.00;;;4.60
80581;BMP180;1474;51.460;7.150;2024-03-23T04:50:20;99760.00;;;4.60
80581;BMP180;1474;51.460;7.150;2024-03-23T04:53:04;99766.00;;;4.60
80581;BMP180;1474;51.460;7.150;2024-03-23T04:55:49;99765.00;;;4.60
80581;BMP180;1474;51.460;7.150;2024-03-23T04:58:33;99757.00;;;4.60
80581;BMP180;1474;51.460;7.150;2024-03-23T05:01:18;99759.00;;;4.70
80581;BMP180;1474;51.460;7.150;2024-03-23T05:04:03;99763.00;;;4.60
80581;BMP180;1474;51.460;7.150;2024-03-23T05:06:47;99766.00;;;4.60
80581;BMP180;1474;51.460;7.150;2024-03-23T05:09:32;99769.00;;;4.60
80581;BMP180;1474;51.460;7.150;2024-03-23T05:12:17;99767.00;;;4.60
80581;BMP180;1474;51.460;7.150;2024-03-23T05:15:02;99758.00;;;4.50
80581;BMP180;1474;51.460;7.150;2024-03-23T05:17:47;99761.00;;;4.60
80581;BMP180;1474;51.460;7.150;2024-03-23T05:20:32;99758.00;;;4.60
80581;BMP180;1474;51.460;7.150;2024-03-23T05:23:16;99749.00;;;4.60
80581;BMP180;1474;51.460;7.150;2024-03-23T05:26:01;99762.00;;;4.60
80581;BMP180;1474;51.460;7.150;2024-03-23T05:28:46;99766.00;;;4.60
80581;BMP180;1474;51.460;7.150;2024-03-23T05:31:31;99777.00;;;4.60
80581;BMP180;1474;51.460;7.150;2024-03-23T05:34:15;99780.00;;;4.50
80581;BMP180;1474;51.460;7.150;2024-03-23T05:37:00;99773.00;;;4.50
80581;BMP180;1474;51.460;7.150;2024-03-23T05:39:44;99771.00;;;4.60
80581;BMP180;1474;51.460;7.150;2024-03-23T05:42:29;99772.00;;;4.50
80581;BMP180;1474;51.460;7.150;2024-03-23T05:45:14;99772.00;;;4.60
80581;BMP180;1474;51.460;7.150;2024-03-23T05:47:58;99772.00;;;4.60
80581;BMP180;1474;51.460;7.150;2024-03-23T05:50:43;99776.00;;;4.60
80581;BMP180;1474;51.460;7.150;2024-03-23T05:53:28;99784.00;;;4.70
80581;BMP180;1474;51.460;7.150;2024-03-23T05:56:19;99778.00;;;4.70
80581;BMP180;1474;51.460;7.150;2024-03-23T05:59:04;99788.00;;;4.70
80581;BMP180;1474;51.460;7.150;2024-03-23T06:01:48;99781.00;;;4.70
80581;BMP180;1474;51.460;7.150;2024-03-23T06:04:15;99776.00;;;4.70
80581;BMP180;1474;51.460;7.150;2024-03-23T06:06:40;99774.00;;;4.70
80581;BMP180;1474;51.460;7.150;2024-03-23T06:09:06;99768.00;;;4.70
80581;BMP180;1474;51.460;7.150;2024-03-23T06:11:32;99785.00;;;4.80
80581;BMP180;1474;51.460;7.150;2024-03-23T06:13:58;99782.00;;;4.80
80581;BMP180;1474;51.460;7.150;2024-03-23T06:16:24;99791.00;;;4.80
80581;BMP180;1474;51.460;7.150;2024-03-23T06:18:54;99794.00;;;4.80
80581;BMP180;1474;51.460;7.150;2024-03-23T06:21:20;99797.00;;;4.80
80581;BMP180;1474;51.460;7.150;2024-03-23T06:23:46;99804.00;;;4.90
80581;BMP180;1474;51.460;7.150;2024-03-23T06:26:21;99790.00;;;4.90
80581;BMP180;1474;51.460;7.150;2024-03-23T06:28:47;99792.00;;;5.00
80581;BMP180;1474;51.460;7.150;2024-03-23T06:31:14;99798.00;;;5.00
80581;BMP180;1474;51.460;7.150;2024-03-23T06:33:39;99788.00;;;4.90
80581;BMP180;1474;51.460;7.150;2024-03-23T06:36:10;99796.00;;;5.00
80581;BMP180;1474;51.460;7.150;2024-03-23T06:38:37;99789.00;;;4.90
80581;BMP180;1474;51.460;7.150;2024-03-23T06:41:06;99804.00;;;5.00
80581;BMP180;1474;51.460;7.150;2024-03-23T06:43:32;99797.00;;;5.00
80581;BMP180;1474;51.460;7.150;2024-03-23T06:45:58;99796.00;;;5.20
80581;BMP180;1474;51.460;7.150;2024-03-23T06:48:28;99799.00;;;5.40
80581;BMP180;1474;51.460;7.150;2024-03-23T06:50:57;99795.00;;;5.60
80581;BMP180;1474;51.460;7.150;2024-03-23T06:53:23;99802.00;;;5.50
80581;BMP180;1474;51.460;7.150;2024-03-23T06:55:53;99794.00;;;5.30
80581;BMP180;1474;51.460;7.150;2024-03-23T06:58:21;99795.00;;;5.60
80581;BMP180;1474;51.460;7.150;2024-03-23T07:00:47;99801.00;;;5.80
80581;BMP180;1474;51.460;7.150;2024-03-23T07:03:13;99806.00;;;5.90
80581;BMP180;1474;51.460;7.150;2024-03-23T07:05:39;99804.00;;;5.90
80581;BMP180;1474;51.460;7.150;2024-03-23T07:08:05;99803.00;;;6.20
80581;BMP180;1474;51.460;7.150;2024-03-23T07:10:31;99799.00;;;6.10
80581;BMP180;1474;51.460;7.150;2024-03-23T07:12:57;99808.00;;;6.20
80581;BMP180;1474;51.460;7.150;2024-03-23T07:15:23;99805.00;;;6.20
80581;BMP180;1474;51.460;7.150;2024-03-23T07:17:49;99800.00;;;6.20
80581;BMP180;1474;51.460;7.150;2024-03-23T07:20:15;99795.00;;;6.40
80581;BMP180;1474;51.460;7.150;2024-03-23T07:22:41;99806.00;;;6.40
80581;BMP180;1474;51.460;7.150;2024-03-23T07:25:07;99797.00;;;6.20
80581;BMP180;1474;51.460;7.150;2024-03-23T07:27:33;99802.00;;;6.50
80581;BMP180;1474;51.460;7.150;2024-03-23T07:29:59;99804.00;;;6.60
80581;BMP180;1474;51.460;7.150;2024-03-23T07:32:26;99798.00;;;6.90
80581;BMP180;1474;51.460;7.150;2024-03-23T07:34:52;99792.00;;;6.70
80581;BMP180;1474;51.460;7.150;2024-03-23T07:37:18;99804.00;;;6.80
80581;BMP180;1474;51.460;7.150;2024-03-23T07:39:44;99802.00;;;6.70
80581;BMP180;1474;51.460;7.150;2024-03-23T07:42:10;99798.00;;;6.90
80581;BMP180;1474;51.460;7.150;2024-03-23T07:44:36;99801.00;;;7.00
80581;BMP180;1474;51.460;7.150;2024-03-23T07:47:02;99800.00;;;7.00
80581;BMP180;1474;51.460;7.150;2024-03-23T07:49:27;99818.00;;;7.30
80581;BMP180;1474;51.460;7.150;2024-03-23T07:51:53;99805.00;;;7.40
80581;BMP180;1474;51.460;7.150;2024-03-23T07:54:19;99808.00;;;7.50
80581;BMP180;1474;51.460;7.150;2024-03-23T07:56:45;99811.00;;;7.90
80581;BMP180;1474;51.460;7.150;2024-03-23T07:59:11;99818.00;;;8.50
80581;BMP180;1474;51.460;7.150;2024-03-23T08:01:36;99808.00;;;8.30
80581;BMP180;1474;51.460;7.150;2024-03-23T08:04:03;99821.00;;;8.10
80581;BMP180;1474;51.460;7.150;2024-03-23T08:06:29;99832.00;;;8.70
80581;BMP180;1474;51.460;7.150;2024-03-23T08:08:58;99837.00;;;7.80
80581;BMP180;1474;51.460;7.150;2024-03-23T08:11:31;99823.00;;;7.80
80581;BMP180;1474;51.460;7.150;2024-03-23T08:13:57;99821.00;;;8.20
80581;BMP180;1474;51.460;7.150;2024-03-23T08:16:24;99820.00;;;8.20
80581;BMP180;1474;51.460;7.150;2024-03-23T08:18:53;99832.00;;;8.50
80581;BMP180;1474;51.460;7.150;2024-03-23T08:21:21;99811.00;;;8.00
80581;BMP180;1474;51.460;7.150;2024-03-23T08:23:46;99820.00;;;7.80
80581;BMP180;1474;51.460;7.150;2024-03-23T08:26:15;99827.00;;;7.90
80581;BMP180;1474;51.460;7.150;2024-03-23T08:28:41;99826.00;;;7.70
80581;BMP180;1474;51.460;7.150;2024-03-23T08:31:10;99824.00;;;7.60
80581;BMP180;1474;51.460;7.150;2024-03-23T08:33:37;99822.00;;;7.40
80581;BMP180;1474;51.460;7.150;2024-03-23T08:36:06;99809.00;;;7.40
80581;BMP180;1474;51.460;7.150;2024-03-23T08:38:32;99807.00;;;7.30
80581;BMP180;1474;51.460;7.150;2024-03-23T08:41:06;99811.00;;;7.50
80581;BMP180;1474;51.460;7.150;2024-03-23T08:43:36;99808.00;;;7.30
80581;BMP180;1474;51.460;7.150;2024-03-23T08:46:10;99796.00;;;8.10
80581;BMP180;1474;51.460;7.150;2024-03-23T08:51:09;99813.00;;;8.40
80581;BMP180;1474;51.460;7.150;2024-03-23T08:53:36;99791.00;;;8.80
80581;BMP180;1474;51.460;7.150;2024-03-23T08:56:04;99809.00;;;9.10
80581;BMP180;1474;51.460;7.150;2024-03-23T08:58:33;99828.00;;;8.40
80581;BMP180;1474;51.460;7.150;2024-03-23T09:01:08;99821.00;;;8.20
80581;BMP180;1474;51.460;7.150;2024-03-23T09:03:35;99807.00;;;7.80
80581;BMP180;1474;51.460;7.150;2024-03-23T09:06:13;99813.00;;;7.60
80581;BMP180;1474;51.460;7.150;2024-03-23T09:08:40;99819.00;;;7.50
80581;BMP180;1474;51.460;7.150;2024-03-23T09:11:10;99823.00;;;7.40
80581;BMP180;1474;51.460;7.150;2024-03-23T09:13:37;99831.00;;;7.30
80581;BMP180;1474;51.460;7.150;2024-03-23T09:16:05;99842.00;;;7.20
80581;BMP180;1474;51.460;7.150;2024-03-23T09:18:35;99834.00;;;7.10
80581;BMP180;1474;51.460;7.150;2024-03-23T09:21:03;99839.00;;;6.90
80581;BMP180;1474;51.460;7.150;2024-03-23T09:23:29;99843.00;;;6.70
80581;BMP180;1474;51.460;7.150;2024-03-23T09:25:55;99834.00;;;6.90
80581;BMP180;1474;51.460;7.150;2024-03-23T09:28:22;99831.00;;;7.60
80581;BMP180;1474;51.460;7.150;2024-03-23T09:30:48;99833.00;;;7.90
80581;BMP180;1474;51.460;7.150;2024-03-23T09:33:14;99828.00;;;7.50
80581;BMP180;1474;51.460;7.150;2024-03-23T09:35:43;99830.00;;;7.70
80581;BMP180;1474;51.460;7.150;2024-03-23T09:38:12;99848.00;;;7.90
80581;BMP180;1474;51.460;7.150;2024-03-23T09:40:42;99829.00;;;8.20
80581;BMP180;1474;51.460;7.150;2024-03-23T09:43:09;99823.00;;;8.80
80581;BMP180;1474;51.460;7.150;2024-03-23T09:45:39;99844.00;;;9.20
80581;BMP180;1474;51.460;7.150;2024-03-23T09:48:08;99831.00;;;9.30
80581;BMP180;1474;51.460;7.150;2024-03-23T09:50:42;99800.00;;;9.80
80581;BMP180;1474;51.460;7.150;2024-03-23T09:53:13;99820.00;;;9.20
80581;BMP180;1474;51.460;7.150;2024-03-23T09:55:41;99805.00;;;9.40
80581;BMP180;1474;51.460;7.150;2024-03-23T09:58:08;99832.00;;;10.30
80581;BMP180;1474;51.460;7.150;2024-03-23T10:00:35;99806.00;;;9.60
80581;BMP180;1474;51.460;7.150;2024-03-23T10:03:01;99829.00;;;9.60
80581;BMP180;1474;51.460;7.150;2024-03-23T10:05:29;99818.00;;;9.40
80581;BMP180;1474;51.460;7.150;2024-03-23T10:07:57;99802.00;;;9.50
80581;BMP180;1474;51.460;7.150;2024-03-23T10:10:25;99807.00;;;9.30
80581;BMP180;1474;51.460;7.150;2024-03-23T10:12:51;99786.00;;;10.40
80581;BMP180;1474;51.460;7.150;2024-03-23T10:15:36;99787.00;;;10.20
80581;BMP180;1474;51.460;7.150;2024-03-23T10:18:19;99800.00;;;10.20
80581;BMP180;1474;51.460;7.150;2024-03-23T10:21:10;99786.00;;;10.80
80581;BMP180;1474;51.460;7.150;2024-03-23T10:23:38;99779.00;;;9.70
80581;BMP180;1474;51.460;7.150;2024-03-23T10:26:25;99781.00;;;10.70
80581;BMP180;1474;51.460;7.150;2024-03-23T10:31:23;99766.00;;;12.10
80581;BMP180;1474;51.460;7.150;2024-03-23T10:33:49;99779.00;;;11.30
80581;BMP180;1474;51.460;7.150;2024-03-23T10:36:16;99774.00;;;11.10
80581;BMP180;1474;51.460;7.150;2024-03-23T10:38:44;99778.00;;;11.90
80581;BMP180;1474;51.460;7.150;2024-03-23T10:41:12;99773.00;;;11.20
80581;BMP180;1474;51.460;7.150;2024-03-23T10:43:39;99767.00;;;12.10
80581;BMP180;1474;51.460;7.150;2024-03-23T10:46:05;99788.00;;;11.00
80581;BMP180;1474;51.460;7.150;2024-03-23T10:48:32;99787.00;;;9.90
80581;BMP180;1474;51.460;7.150;2024-03-23T10:50:59;99781.00;;;9.50
80581;BMP180;1474;51.460;7.150;2024-03-23T10:53:28;99789.00;;;9.60
80581;BMP180;1474;51.460;7.150;2024-03-23T10:55:56;99782.00;;;9.50
80581;BMP180;1474;51.460;7.150;2024-03-23T10:58:35;99827.00;;;9.10
80581;BMP180;1474;51.460;7.150;2024-03-23T11:01:03;99862.00;;;6.60
80581;BMP180;1474;51.460;7.150;2024-03-23T11:03:37;99857.00;;;5.50
80581;BMP180;1474;51.460;7.150;2024-03-23T11:06:07;99848.00;;;5.00
80581;BMP180;1474;51.460;7.150;2024-03-23T11:08:38;99856.00;;;4.80
80581;BMP180;1474;51.460;7.150;2024-03-23T11:11:21;99857.00;;;4.80
80581;BMP180;1474;51.460;7.150;2024-03-23T11:13:51;99854.00;;;4.90
80581;BMP180;1474;51.460;7.150;2024-03-23T11:16:23;99844.00;;;5.10
80581;BMP180;1474;51.460;7.150;2024-03-23T11:18:51;99837.00;;;5.30
80581;BMP180;1474;51.460;7.150;2024-03-23T11:21:52;99835.00;;;5.80
80581;BMP180;1474;51.460;7.150;2024-03-23T11:24:20;99833.00;;;6.80
80581;BMP180;1474;51.460;7.150;2024-03-23T11:26:47;99835.00;;;7.90
80581;BMP180;1474;51.460;7.150;2024-03-23T11:29:17;99829.00;;;8.60
80581;BMP180;1474;51.460;7.150;2024-03-23T11:31:52;99829.00;;;9.00
80581;BMP180;1474;51.460;7.150;2024-03-23T11:34:19;99834.00;;;9.00
80581;BMP180;1474;51.460;7.150;2024-03-23T11:36:46;99820.00;;;8.90
80581;BMP180;1474;51.460;7.150;2024-03-23T11:39:20;99828.00;;;9.00
80581;BMP180;1474;51.460;7.150;2024-03-23T11:41:54;99825.00;;;8.80
80581;BMP180;1474;51.460;7.150;2024-03-23T11:44:27;99812.00;;;8.90
80581;BMP180;1474;51.460;7.150;2024-03-23T11:46:52;99813.00;;;9.00
80581;BMP180;1474;51.460;7.150;2024-03-23T11:49:26;99809.00;;;9.50
80581;BMP180;1474;51.460;7.150;2024-03-23T11:51:54;99818.00;;;10.00
80581;BMP180;1474;51.460;7.150;2024-03-23T11:54:24;99796.00;;;9.30
80581;BMP180;1474;51.460;7.150;2024-03-23T11:59:39;99785.00;;;9.80
80581;BMP180;1474;51.460;7.150;2024-03-23T12:02:09;99789.00;;;10.30
80581;BMP180;1474;51.460;7.150;2024-03-23T12:04:37;99778.00;;;10.10
80581;BMP180;1474;51.460;7.150;2024-03-23T12:07:29;99790.00;;;10.50
80581;BMP180;1474;51.460;7.150;2024-03-23T12:10:05;99779.00;;;10.50
80581;BMP180;1474;51.460;7.150;2024-03-23T12:12:35;99783.00;;;10.50
80581;BMP180;1474;51.460;7.150;2024-03-23T12:15:06;99779.00;;;10.10
80581;BMP180;1474;51.460;7.150;2024-03-23T12:17:34;99785.00;;;9.60
80581;BMP180;1474;51.460;7.150;2024-03-23T12:20:01;99790.00;;;9.00
80581;BMP180;1474;51.460;7.150;2024-03-23T12:22:27;99788.00;;;8.90
80581;BMP180;1474;51.460;7.150;2024-03-23T12:24:55;99782.00;;;8.70
80581;BMP180;1474;51.460;7.150;2024-03-23T12:27:22;99788.00;;;8.40
80581;BMP180;1474;51.460;7.150;2024-03-23T12:29:48;99784.00;;;8.10
80581;BMP180;1474;51.460;7.150;2024-03-23T12:32:14;99790.00;;;8.20
80581;BMP180;1474;51.460;7.150;2024-03-23T12:34:40;99788.00;;;7.90
80581;BMP180;1474;51.460;7.150;2024-03-23T12:37:07;99796.00;;;8.10
80581;BMP180;1474;51.460;7.150;2024-03-23T12:39:33;99786.00;;;8.80
80581;BMP180;1474;51.460;7.150;2024-03-23T12:42:01;99789.00;;;9.20
80581;BMP180;1474;51.460;7.150;2024-03-23T12:44:28;99807.00;;;9.50
80581;BMP180;1474;51.460;7.150;2024-03-23T12:46:54;99789.00;;;8.90
80581;BMP180;1474;51.460;7.150;2024-03-23T12:49:20;99792.00;;;9.50
80581;BMP180;1474;51.460;7.150;2024-03-23T12:51:54;99793.00;;;9.60
80581;BMP180;1474;51.460;7.150;2024-03-23T12:54:21;99800.00;;;9.50
80581;BMP180;1474;51.460;7.150;2024-03-23T12:56:47;99794.00;;;10.00
80581;BMP180;1474;51.460;7.150;2024-03-23T12:59:14;99804.00;;;9.60
80581;BMP180;1474;51.460;7.150;2024-03-23T13:01:40;99797.00;;;9.00
80581;BMP180;1474;51.460;7.150;2024-03-23T13:04:06;99798.00;;;9.20
80581;BMP180;1474;51.460;7.150;2024-03-23T13:06:32;99800.00;;;9.00
80581;BMP180;1474;51.460;7.150;2024-03-23T13:09:01;99803.00;;;8.70
80581;BMP180;1474;51.460;7.150;2024-03-23T13:11:28;99797.00;;;7.80
80581;BMP180;1474;51.460;7.150;2024-03-23T13:13:54;99821.00;;;7.40
80581;BMP180;1474;51.460;7.150;2024-03-23T13:16:20;99842.00;;;6.70
80581;BMP180;1474;51.460;7.150;2024-03-23T13:18:46;99799.00;;;5.90
80581;BMP180;1474;51.460;7.150;2024-03-23T13:21:12;99803.00;;;5.80
80581;BMP180;1474;51.460;7.150;2024-03-23T13:23:37;99802.00;;;6.00
80581;BMP180;1474;51.460;7.150;2024-03-23T13:26:07;99792.00;;;6.70
80581;BMP180;1474;51.460;7.150;2024-03-23T13:28:33;99800.00;;;8.20
80581;BMP180;1474;51.460;7.150;2024-03-23T13:30:59;99787.00;;;8.90
80581;BMP180;1474;51.460;7.150;2024-03-23T13:33:32;99803.00;;;8.50
80581;BMP180;1474;51.460;7.150;2024-03-23T13:35:58;99821.00;;;8.50
80581;BMP180;1474;51.460;7.150;2024-03-23T13:38:24;99820.00;;;7.90
80581;BMP180;1474;51.460;7.150;2024-03-23T13:40:57;99807.00;;;7.30
80581;BMP180;1474;51.460;7.150;2024-03-23T13:43:25;99803.00;;;7.10
80581;BMP180;1474;51.460;7.150;2024-03-23T13:45:58;99794.00;;;6.80
80581;BMP180;1474;51.460;7.150;2024-03-23T13:48:27;99796.00;;;7.20
80581;BMP180;1474;51.460;7.150;2024-03-23T13:51:05;99782.00;;;7.90
80581;BMP180;1474;51.460;7.150;2024-03-23T13:53:31;99800.00;;;9.00
80581;BMP180;1474;51.460;7.150;2024-03-23T13:56:00;99775.00;;;8.60
80581;BMP180;1474;51.460;7.150;2024-03-23T13:58:26;99780.00;;;8.30
80581;BMP180;1474;51.460;7.150;2024-03-23T14:00:53;99775.00;;;8.10
80581;BMP180;1474;51.460;7.150;2024-03-23T14:03:18;99786.00;;;8.10
80581;BMP180;1474;51.460;7.150;2024-03-23T14:05:45;99784.00;;;8.00
80581;BMP180;1474;51.460;7.150;2024-03-23T14:08:12;99775.00;;;7.80
80581;BMP180;1474;51.460;7.150;2024-03-23T14:10:42;99769.00;;;8.20
80581;BMP180;1474;51.460;7.150;2024-03-23T14:13:08;99771.00;;;9.00
80581;BMP180;1474;51.460;7.150;2024-03-23T14:15:34;99753.00;;;9.20
80581;BMP180;1474;51.460;7.150;2024-03-23T14:18:02;99764.00;;;9.80
80581;BMP180;1474;51.460;7.150;2024-03-23T14:20:28;99762.00;;;9.30
80581;BMP180;1474;51.460;7.150;2024-03-23T14:22:54;99749.00;;;9.80
80581;BMP180;1474;51.460;7.150;2024-03-23T14:25:20;99751.00;;;9.80
80581;BMP180;1474;51.460;7.150;2024-03-23T14:27:49;99755.00;;;10.10
80581;BMP180;1474;51.460;7.150;2024-03-23T14:30:15;99749.00;;;10.00
80581;BMP180;1474;51.460;7.150;2024-03-23T14:32:41;99765.00;;;10.00
80581;BMP180;1474;51.460;7.150;2024-03-23T14:35:07;99760.00;;;9.20
80581;BMP180;1474;51.460;7.150;2024-03-23T14:37:37;99756.00;;;9.00
80581;BMP180;1474;51.460;7.150;2024-03-23T14:40:04;99765.00;;;8.70
80581;BMP180;1474;51.460;7.150;2024-03-23T14:42:30;99755.00;;;9.00
80581;BMP180;1474;51.460;7.150;2024-03-23T14:44:59;99771.00;;;9.30
80581;BMP180;1474;51.460;7.150;2024-03-23T14:47:25;99754.00;;;9.10
80581;BMP180;1474;51.460;7.150;2024-03-23T14:49:51;99751.00;;;9.20
80581;BMP180;1474;51.460;7.150;2024-03-23T14:52:17;99763.00;;;8.60
80581;BMP180;1474;51.460;7.150;2024-03-23T14:54:47;99757.00;;;8.70
80581;BMP180;1474;51.460;7.150;2024-03-23T14:57:13;99741.00;;;8.60
80581;BMP180;1474;51.460;7.150;2024-03-23T14:59:39;99749.00;;;8.60
80581;BMP180;1474;51.460;7.150;2024-03-23T15:02:09;99742.00;;;8.30
80581;BMP180;1474;51.460;7.150;2024-03-23T15:04:35;99743.00;;;8.20
80581;BMP180;1474;51.460;7.150;2024-03-23T15:07:01;99742.00;;;8.00
80581;BMP180;1474;51.460;7.150;2024-03-23T15:09:28;99741.00;;;8.10
80581;BMP180;1474;51.460;7.150;2024-03-23T15:11:53;99725.00;;;8.30
80581;BMP180;1474;51.460;7.150;2024-03-23T15:14:23;99737.00;;;8.60
80581;BMP180;1474;51.460;7.150;2024-03-23T15:16:49;99732.00;;;8.40
80581;BMP180;1474;51.460;7.150;2024-03-23T15:19:16;99736.00;;;8.50
80581;BMP180;1474;51.460;7.150;2024-03-23T15:21:43;99726.00;;;8.20
80581;BMP180;1474;51.460;7.150;2024-03-23T15:24:10;99724.00;;;7.90
80581;BMP180;1474;51.460;7.150;2024-03-23T15:26:37;99725.00;;;7.90
80581;BMP180;1474;51.460;7.150;2024-03-23T15:29:03;99721.00;;;8.20
80581;BMP180;1474;51.460;7.150;2024-03-23T15:31:36;99716.00;;;8.70
80581;BMP180;1474;51.460;7.150;2024-03-23T15:34:02;99709.00;;;8.70
80581;BMP180;1474;51.460;7.150;2024-03-23T15:36:29;99733.00;;;9.00
80581;BMP180;1474;51.460;7.150;2024-03-23T15:38:55;99717.00;;;8.80
80581;BMP180;1474;51.460;7.150;2024-03-23T15:41:20;99707.00;;;9.10
80581;BMP180;1474;51.460;7.150;2024-03-23T15:43:49;99711.00;;;8.90
80581;BMP180;1474;51.460;7.150;2024-03-23T15:46:14;99706.00;;;8.90
80581;BMP180;1474;51.460;7.150;2024-03-23T15:48:41;99719.00;;;8.50
80581;BMP180;1474;51.460;7.150;2024-03-23T15:51:12;99708.00;;;8.20
80581;BMP180;1474;51.460;7.150;2024-03-23T15:53:38;99703.00;;;8.30
80581;BMP180;1474;51.460;7.150;2024-03-23T15:56:04;99717.00;;;8.40
80581;BMP180;1474;51.460;7.150;2024-03-23T15:58:32;99698.00;;;8.60
80581;BMP180;1474;51.460;7.150;2024-03-23T16:01:06;99702.00;;;8.70
80581;BMP180;1474;51.460;7.150;2024-03-23T16:03:33;99688.00;;;8.60
80581;BMP180;1474;51.460;7.150;2024-03-23T16:06:01;99702.00;;;8.80
80581;BMP180;1474;51.460;7.150;2024-03-23T16:08:27;99688.00;;;8.40
80581;BMP180;1474;51.460;7.150;2024-03-23T16:10:54;99699.00;;;8.20